首页
METAR-TAF:

METAR-TAF

机场 :

迪比克, 艾奥瓦州, 美国

纬度: 42-23-52N, 经度: 090-42-13W, 海拔: 328米

当前天气观测

该预报发布于36分钟前的19:53 UTC
风速16节,风向南转南东
温度 16°C
湿度 48%
气压 1017 hPa
能見度: 16.1公里
天空无云

METAR: KDBQ 021953Z 15016KT 10SM CLR 16/05 A3002 RMK AO2 PK WND 16026/1916 SLP170 T01560050

时间: 15:29 (20:29 UTC)

预报

该预报发布于3小时和7分钟前的17:22 UTC
预报有效从02日的 18点(UTC)到 03日的 18点(UTC)
风速18节,风向南转南东,有时为28节阵风
能見度: 10公里
多云层高于12000英尺
从 03日的 0400点(UTC)
风速12节,风向东转东南,有时为18节阵风
能見度: 9.7公里
阴天层高于3500英尺
小阵雨
从 03日的 0700点(UTC)
风速11节,风向东南
能見度: 10公里
阴天层高于4000英尺
从 03日的 1500点(UTC)
风速11节,风向南转南东
能見度: 4.8公里
多云层高于800英尺
阴天层高于1200英尺
小雨

TAF: KDBQ 021722Z 0218/0318 15018G28KT P6SM BKN120 FM030400 12012G18KT 6SM -SHRA OVC035 FM030700 14011KT P6SM OVC040 FM031500 16011KT 3SM -RA BKN008 OVC012

超过4000个机场的气象观测和天气预报(METAR&TAF报告)。

可查询的气象台以黄色和红色小点在地图上表示。

将鼠标移到小点上方,可查看气象台名称。

然后点击查看天气观测和预报。

如需切换地图:点击带黑十字的绿色按钮放大地图;点击带横线的绿色按钮缩小地图;或者点击绿色箭头查看邻近地区的地图。


METAR-TAF: